createdAt,value
2023-09-21T00:01:35.093Z,89.75
2023-09-21T00:04:38.275Z,90.00
2023-09-21T00:07:40.762Z,90.11
2023-09-21T00:10:43.221Z,90.27
2023-09-21T00:13:45.812Z,90.85
2023-09-21T00:16:49.390Z,90.05
2023-09-21T00:19:51.873Z,90.89
2023-09-21T00:22:54.523Z,91.68
2023-09-21T00:25:59.927Z,92.05
2023-09-21T00:29:05.147Z,92.30
2023-09-21T00:32:07.846Z,92.20
2023-09-21T00:35:12.432Z,91.87
2023-09-21T00:38:15.557Z,91.73
2023-09-21T00:41:19.472Z,92.18
2023-09-21T00:44:23.500Z,92.14
2023-09-21T00:47:26.065Z,92.59
2023-09-21T00:50:28.664Z,93.01
2023-09-21T00:53:33.109Z,93.61
2023-09-21T00:56:36.320Z,93.78
2023-09-21T00:59:40.645Z,94.24
2023-09-21T01:02:44.536Z,93.94
2023-09-21T01:05:50.179Z,94.01
2023-09-21T01:08:53.469Z,94.36
2023-09-21T01:12:00.868Z,93.69
2023-09-21T01:15:11.777Z,94.69
2023-09-21T01:18:17.991Z,94.54
2023-09-21T01:21:27.597Z,94.51
2023-09-21T01:24:30.073Z,94.51
2023-09-21T01:27:35.448Z,94.27
2023-09-21T01:30:42.331Z,93.82
2023-09-21T01:33:45.436Z,93.45
2023-09-21T01:36:48.074Z,92.88
2023-09-21T01:39:50.637Z,93.16
2023-09-21T01:42:53.423Z,93.66
2023-09-21T01:45:56.097Z,93.78
2023-09-21T01:48:58.688Z,93.13
2023-09-21T01:52:01.278Z,93.02
2023-09-21T01:55:06.661Z,93.60
2023-09-21T01:58:12.992Z,94.56
2023-09-21T02:01:18.971Z,94.75
2023-09-21T02:04:21.714Z,94.49
2023-09-21T02:07:24.235Z,95.13
2023-09-21T02:10:27.073Z,95.41
2023-09-21T02:13:29.950Z,94.87
2023-09-21T02:16:32.625Z,94.37
2023-09-21T02:19:38.774Z,94.58
2023-09-21T02:22:46.536Z,95.38
2023-09-21T02:25:49.859Z,94.22
2023-09-21T02:28:54.271Z,94.36
2023-09-21T02:31:57.776Z,95.16
2023-09-21T02:35:01.462Z,95.02
2023-09-21T02:38:04.566Z,94.92
2023-09-21T02:41:07.149Z,95.65
2023-09-21T02:44:09.821Z,95.24
2023-09-21T02:47:12.320Z,95.21
2023-09-21T02:50:16.600Z,94.62
2023-09-21T02:53:22.368Z,94.65
2023-09-21T02:56:25.302Z,95.21
2023-09-21T02:59:27.937Z,95.11
2023-09-21T03:02:31.003Z,95.36
2023-09-21T03:05:37.545Z,94.85
2023-09-21T03:08:40.354Z,95.73
2023-09-21T03:11:46.607Z,96.10
2023-09-21T03:14:50.111Z,96.13
2023-09-21T03:17:56.596Z,96.52
2023-09-21T03:20:59.236Z,96.62
2023-09-21T03:24:02.817Z,96.07
2023-09-21T03:27:05.722Z,95.88
2023-09-21T03:30:13.354Z,94.02
2023-09-21T03:33:17.722Z,94.33
2023-09-21T03:36:21.685Z,94.12
2023-09-21T03:39:27.964Z,93.85
2023-09-21T03:42:33.876Z,93.96
2023-09-21T03:45:36.403Z,92.88
2023-09-21T03:48:39.114Z,93.40
2023-09-21T03:51:42.762Z,93.13
2023-09-21T03:54:47.995Z,93.24
2023-09-21T03:57:51.380Z,93.53
2023-09-21T04:00:53.844Z,93.77
2023-09-21T04:03:56.883Z,93.00
2023-09-21T04:06:59.550Z,93.79
2023-09-21T04:10:02.328Z,93.86
2023-09-21T04:13:06.737Z,94.30
2023-09-21T04:16:09.787Z,94.95
2023-09-21T04:19:15.700Z,93.90
2023-09-21T04:22:18.201Z,91.53
2023-09-21T04:25:20.772Z,89.91
2023-09-21T04:28:23.788Z,88.75
2023-09-21T04:31:26.418Z,87.90
2023-09-21T04:34:29.037Z,87.85
2023-09-21T04:37:31.652Z,87.07
2023-09-21T04:40:34.280Z,86.60
2023-09-21T04:43:40.774Z,86.17
2023-09-21T04:46:44.157Z,85.63
2023-09-21T04:49:47.050Z,85.22
2023-09-21T04:52:50.416Z,84.74
2023-09-21T04:55:54.671Z,85.40
2023-09-21T04:58:57.336Z,84.62
2023-09-21T05:02:00.152Z,82.48
2023-09-21T05:05:03.069Z,81.86
2023-09-21T05:08:05.828Z,81.21
2023-09-21T05:11:08.709Z,80.81
2023-09-21T05:14:11.364Z,80.94
2023-09-21T05:17:13.915Z,82.01
2023-09-21T05:20:16.767Z,83.17
2023-09-21T05:23:19.923Z,83.06
2023-09-21T05:26:22.474Z,83.37
2023-09-21T05:29:25.079Z,82.42
2023-09-21T05:32:32.596Z,82.13
2023-09-21T05:35:36.116Z,81.07
2023-09-21T05:38:38.825Z,81.48
2023-09-21T05:41:42.669Z,83.37
2023-09-21T05:44:45.731Z,83.90
2023-09-21T05:47:48.517Z,84.39
2023-09-21T05:50:51.428Z,83.93
2023-09-21T05:53:54.246Z,82.99
2023-09-21T05:56:57.224Z,84.04
2023-09-21T05:59:59.849Z,84.99
2023-09-21T06:03:04.601Z,87.00
2023-09-21T06:06:08.817Z,86.99
2023-09-21T06:09:13.930Z,87.23
2023-09-21T06:12:16.587Z,85.61
2023-09-21T06:15:19.824Z,82.37
2023-09-21T06:18:24.344Z,79.35
2023-09-21T06:21:28.477Z,78.64
2023-09-21T06:24:32.435Z,78.70
2023-09-21T06:27:37.788Z,77.22
2023-09-21T06:30:40.417Z,77.26
2023-09-21T06:33:43.446Z,77.30
2023-09-21T06:36:48.061Z,76.74
2023-09-21T06:39:51.130Z,76.43
2023-09-21T06:42:54.194Z,76.18
2023-09-21T06:45:56.707Z,74.92
2023-09-21T06:49:01.355Z,73.71
2023-09-21T06:52:05.675Z,74.25
2023-09-21T06:55:08.722Z,74.30
2023-09-21T06:58:25.487Z,74.88
2023-09-21T07:01:28.839Z,74.28
2023-09-21T07:04:35.124Z,74.40
2023-09-21T07:07:38.285Z,74.02
2023-09-21T07:19:34.548Z,74.32
2023-09-21T07:22:38.339Z,75.57
2023-09-21T07:25:40.841Z,76.92
2023-09-21T07:28:44.906Z,77.16
2023-09-21T07:31:47.911Z,76.76
2023-09-21T07:34:51.349Z,76.13
2023-09-21T07:37:54.021Z,77.21
2023-09-21T07:40:58.461Z,75.95
2023-09-21T07:44:01.699Z,77.43
2023-09-21T07:47:05.544Z,78.28
2023-09-21T07:50:09.481Z,76.09
2023-09-21T07:53:12.100Z,75.88
2023-09-21T07:56:15.361Z,74.74
2023-09-21T07:59:18.135Z,75.50
2023-09-21T08:02:21.323Z,74.96
2023-09-21T08:05:23.991Z,73.88
2023-09-21T08:08:27.156Z,73.30
2023-09-21T08:11:30.690Z,73.54
2023-09-21T08:14:35.947Z,72.89
2023-09-21T08:17:39.445Z,73.13
2023-09-21T08:20:42.157Z,71.46
2023-09-21T08:23:47.505Z,70.91
2023-09-21T08:26:51.439Z,71.02
2023-09-21T08:29:59.214Z,71.39
2023-09-21T08:33:03.106Z,72.62
2023-09-21T08:36:06.680Z,72.04
2023-09-21T08:39:09.780Z,72.61
2023-09-21T08:42:12.670Z,74.76
2023-09-21T08:45:20.635Z,77.40
2023-09-21T08:48:24.921Z,80.54
2023-09-21T08:51:31.694Z,84.62
2023-09-21T08:54:41.392Z,84.78
2023-09-21T08:57:44.308Z,89.70
2023-09-21T09:00:48.709Z,91.67
2023-09-21T09:03:53.178Z,89.51
2023-09-21T09:06:56.228Z,90.14
2023-09-21T09:09:59.150Z,89.36
2023-09-21T09:13:11.892Z,90.78
2023-09-21T09:16:28.469Z,92.15
2023-09-21T09:19:34.420Z,90.19
2023-09-21T09:22:37.556Z,90.95
2023-09-21T09:25:41.882Z,88.88
2023-09-21T09:28:45.315Z,88.48
2023-09-21T09:31:49.560Z,86.82
2023-09-21T09:34:53.924Z,87.03
2023-09-21T09:37:58.841Z,85.64
2023-09-21T09:41:05.496Z,83.18
2023-09-21T09:44:10.235Z,83.92
2023-09-21T09:47:17.454Z,83.43
2023-09-21T09:50:27.998Z,82.06
2023-09-21T09:53:35.635Z,84.32
2023-09-21T09:56:46.968Z,80.56
2023-09-21T09:59:50.734Z,77.45
2023-09-21T10:02:55.145Z,76.48
2023-09-21T10:05:58.637Z,74.88
2023-09-21T10:09:03.896Z,74.31
2023-09-21T10:12:08.518Z,73.94
2023-09-21T10:15:14.771Z,74.47
2023-09-21T10:18:51.596Z,73.37
2023-09-21T10:21:57.679Z,72.11
2023-09-21T10:25:00.941Z,71.42
2023-09-21T10:28:32.876Z,70.31
2023-09-21T10:31:39.503Z,70.46
2023-09-21T10:34:49.810Z,69.91
2023-09-21T10:37:52.905Z,70.39
2023-09-21T10:40:56.077Z,70.04
2023-09-21T10:44:01.334Z,66.98
2023-09-21T10:47:04.221Z,67.84
2023-09-21T10:50:15.721Z,67.25
2023-09-21T10:53:20.702Z,65.02
2023-09-21T10:56:24.691Z,64.34
2023-09-21T10:59:30.746Z,65.02
2023-09-21T11:02:35.151Z,62.21
2023-09-21T11:05:39.527Z,60.52
2023-09-21T11:08:48.084Z,61.09
2023-09-21T11:11:51.965Z,61.80
2023-09-21T11:14:54.934Z,63.43
2023-09-21T11:17:59.357Z,63.14
2023-09-21T11:21:04.746Z,62.03
2023-09-21T11:24:07.772Z,61.63
2023-09-21T11:27:11.595Z,59.78
2023-09-21T11:30:16.634Z,59.43
2023-09-21T11:33:25.140Z,56.28
2023-09-21T11:36:29.172Z,54.94
2023-09-21T11:39:32.380Z,54.39
2023-09-21T11:42:35.381Z,53.99
2023-09-21T11:45:38.058Z,53.34
2023-09-21T11:48:41.795Z,53.35
2023-09-21T11:51:45.643Z,53.96
2023-09-21T11:54:49.687Z,54.17
2023-09-21T11:57:53.381Z,52.67
2023-09-21T12:01:16.186Z,53.26
2023-09-21T12:04:19.321Z,52.14
2023-09-21T12:07:22.243Z,52.17
2023-09-21T12:10:25.757Z,52.18
2023-09-21T12:13:28.497Z,52.15
2023-09-21T12:16:32.033Z,49.97
2023-09-21T12:19:35.369Z,49.55
2023-09-21T12:22:39.676Z,48.76
2023-09-21T12:25:44.232Z,48.53
2023-09-21T12:28:50.583Z,47.62
2023-09-21T12:31:59.895Z,46.17
2023-09-21T12:35:07.934Z,45.71
2023-09-21T12:38:12.293Z,45.41
2023-09-21T12:41:15.328Z,44.67
2023-09-21T12:44:18.691Z,44.03
2023-09-21T12:47:21.539Z,43.76
2023-09-21T12:50:26.093Z,43.73
2023-09-21T12:53:30.278Z,42.70
2023-09-21T12:56:33.774Z,42.24
2023-09-21T12:59:36.566Z,40.57
2023-09-21T13:02:39.789Z,39.60
2023-09-21T13:05:46.230Z,41.87
2023-09-21T13:08:49.403Z,43.87
2023-09-21T13:11:52.882Z,41.57
2023-09-21T13:14:55.678Z,41.34
2023-09-21T13:17:58.769Z,39.71
2023-09-21T13:21:03.003Z,39.33
2023-09-21T13:24:06.186Z,38.52
2023-09-21T13:27:09.564Z,36.51
2023-09-21T13:30:14.216Z,38.97
2023-09-21T13:33:17.170Z,38.28
2023-09-21T13:36:20.089Z,38.18
2023-09-21T13:39:23.682Z,38.66
2023-09-21T13:42:28.253Z,39.28
2023-09-21T13:45:33.797Z,39.10
2023-09-21T13:48:39.071Z,39.46
2023-09-21T13:51:44.332Z,38.74
2023-09-21T13:54:56.312Z,37.75
2023-09-21T13:58:06.036Z,37.72
2023-09-21T14:01:09.546Z,38.87
2023-09-21T14:04:12.894Z,42.20
2023-09-21T14:07:16.167Z,42.47
2023-09-21T14:10:19.174Z,43.68
2023-09-21T14:13:22.080Z,44.19
2023-09-21T14:16:26.701Z,44.58
2023-09-21T14:19:33.896Z,44.62
2023-09-21T14:22:39.392Z,41.90
2023-09-21T14:25:42.337Z,40.39
2023-09-21T14:28:45.222Z,39.90
2023-09-21T14:31:49.526Z,39.43
2023-09-21T14:34:53.837Z,40.76
2023-09-21T14:37:56.598Z,38.06
2023-09-21T14:40:59.369Z,36.96
2023-09-21T14:44:02.214Z,37.20
2023-09-21T14:47:06.428Z,36.48
2023-09-21T14:50:10.820Z,34.94
2023-09-21T14:53:13.690Z,35.76
2023-09-21T14:56:16.437Z,35.26
2023-09-21T14:59:19.704Z,35.34
2023-09-21T15:02:22.640Z,36.20
2023-09-21T15:05:25.110Z,35.91
2023-09-21T15:08:28.007Z,36.06
2023-09-21T15:11:30.818Z,35.90
2023-09-21T15:14:34.171Z,35.87
2023-09-21T15:17:36.613Z,35.94
2023-09-21T15:20:41.256Z,35.20
2023-09-21T15:23:47.882Z,36.04
2023-09-21T15:26:51.807Z,35.93
2023-09-21T15:29:54.642Z,35.86
2023-09-21T15:32:57.592Z,37.33
2023-09-21T15:36:00.976Z,39.05
2023-09-21T15:39:05.072Z,41.05
2023-09-21T15:42:07.921Z,42.49
2023-09-21T15:45:11.894Z,43.77
2023-09-21T15:48:15.731Z,45.26
2023-09-21T15:51:18.827Z,44.83
2023-09-21T15:54:21.882Z,47.19
2023-09-21T15:57:24.445Z,46.15
2023-09-21T16:00:27.420Z,46.30
2023-09-21T16:03:30.432Z,47.53
2023-09-21T16:06:33.933Z,48.42
2023-09-21T16:09:36.451Z,49.04
2023-09-21T16:12:39.294Z,50.22
2023-09-21T16:15:42.409Z,51.20
2023-09-21T16:18:45.525Z,52.11
2023-09-21T16:21:48.578Z,52.80
2023-09-21T16:24:55.332Z,53.93
2023-09-21T16:27:59.103Z,55.19
2023-09-21T16:31:01.949Z,55.09
2023-09-21T16:34:05.127Z,55.90
2023-09-21T16:37:08.130Z,56.67
2023-09-21T16:40:12.573Z,57.15
2023-09-21T16:43:15.268Z,58.76
2023-09-21T16:46:39.593Z,58.57
2023-09-21T16:49:41.254Z,59.32
2023-09-21T16:52:44.570Z,57.97
2023-09-21T16:55:47.403Z,58.60
2023-09-21T16:58:50.741Z,59.17
2023-09-21T17:01:53.599Z,59.07
2023-09-21T17:04:56.572Z,59.50
2023-09-21T17:07:59.552Z,59.53
2023-09-21T17:11:02.341Z,59.71
2023-09-21T17:14:05.089Z,58.76
2023-09-21T17:17:08.769Z,59.08
2023-09-21T17:20:13.224Z,59.28
2023-09-21T17:23:15.682Z,59.59
2023-09-21T17:26:18.420Z,59.99
2023-09-21T17:29:21.139Z,58.99
2023-09-21T17:32:25.292Z,58.92
2023-09-21T17:35:27.914Z,59.40
2023-09-21T17:38:31.243Z,60.23
2023-09-21T17:41:34.096Z,61.00
2023-09-21T17:44:36.780Z,60.55
2023-09-21T17:47:39.787Z,60.56
2023-09-21T17:50:44.791Z,60.23
2023-09-21T17:53:50.288Z,60.51
2023-09-21T17:56:53.506Z,61.36
2023-09-21T17:59:56.239Z,60.29
2023-09-21T18:03:00.829Z,60.24
2023-09-21T18:06:03.524Z,60.07
2023-09-21T18:09:09.474Z,60.54
2023-09-21T18:12:12.564Z,60.31
2023-09-21T18:15:15.437Z,59.78
2023-09-21T18:18:18.080Z,58.96
2023-09-21T18:21:21.126Z,59.71
2023-09-21T18:24:23.949Z,59.09
2023-09-21T18:27:27.123Z,60.98
2023-09-21T18:30:30.216Z,62.70
2023-09-21T18:33:36.914Z,62.89
2023-09-21T18:36:43.221Z,63.99
2023-09-21T18:39:46.288Z,63.90
2023-09-21T18:42:49.266Z,60.62
2023-09-21T18:45:52.220Z,59.92
2023-09-21T18:48:55.217Z,59.89
2023-09-21T18:51:59.000Z,59.91
2023-09-21T18:55:01.736Z,60.37
2023-09-21T18:58:04.810Z,60.29
2023-09-21T19:01:12.988Z,59.41
2023-09-21T19:04:15.773Z,59.82
2023-09-21T19:07:19.375Z,60.47
2023-09-21T19:10:22.273Z,60.49
2023-09-21T19:13:25.118Z,60.79
2023-09-21T19:16:27.928Z,60.64
2023-09-21T19:19:31.122Z,60.63
2023-09-21T19:22:33.960Z,60.52
2023-09-21T19:25:38.060Z,61.23
2023-09-21T19:28:40.896Z,60.89
2023-09-21T19:31:43.659Z,61.33
2023-09-21T19:34:46.428Z,61.67
2023-09-21T19:37:49.571Z,62.58
2023-09-21T19:40:55.618Z,62.81
2023-09-21T19:43:59.670Z,63.07
2023-09-21T19:47:03.569Z,63.40
2023-09-21T19:50:06.857Z,64.01
2023-09-21T19:53:11.841Z,64.50
2023-09-21T19:56:14.882Z,65.23
2023-09-21T19:59:20.984Z,66.23
2023-09-21T20:02:23.882Z,66.48
2023-09-21T20:05:26.468Z,66.74
2023-09-21T20:08:29.232Z,67.24
2023-09-21T20:11:31.995Z,67.80
2023-09-21T20:14:34.730Z,67.96
2023-09-21T20:17:37.560Z,68.23
2023-09-21T20:20:40.161Z,67.90
2023-09-21T20:23:42.904Z,68.09
2023-09-21T20:26:45.858Z,68.20
2023-09-21T20:29:49.730Z,68.20
2023-09-21T20:32:52.278Z,68.56
2023-09-21T20:35:58.163Z,68.98
2023-09-21T20:39:00.666Z,69.57
2023-09-21T20:42:03.373Z,70.09
2023-09-21T20:45:06.989Z,70.61
2023-09-21T20:48:09.879Z,70.58
2023-09-21T20:51:12.487Z,70.28
2023-09-21T20:54:15.361Z,69.87
2023-09-21T20:57:19.969Z,70.21
2023-09-21T21:00:24.138Z,69.34
2023-09-21T21:03:27.600Z,68.78
2023-09-21T21:06:30.633Z,68.37
2023-09-21T21:09:33.544Z,68.30
2023-09-21T21:12:36.308Z,67.43
2023-09-21T21:15:39.014Z,68.13
2023-09-21T21:18:41.865Z,68.47
2023-09-21T21:21:44.438Z,68.85
2023-09-21T21:24:47.380Z,68.75
2023-09-21T21:27:50.344Z,69.14
2023-09-21T21:30:53.553Z,68.85
2023-09-21T21:33:56.917Z,69.30
2023-09-21T21:36:59.658Z,69.47
2023-09-21T21:40:02.662Z,69.67
2023-09-21T21:43:05.904Z,70.00
2023-09-21T21:46:11.179Z,70.84
2023-09-21T21:49:14.009Z,71.18
2023-09-21T21:52:16.710Z,71.21
2023-09-21T21:55:22.428Z,71.45
2023-09-21T21:58:25.203Z,71.15
2023-09-21T22:01:43.666Z,71.51
2023-09-21T22:04:47.731Z,71.96
2023-09-21T22:07:51.159Z,72.74
2023-09-21T22:10:54.206Z,73.60
2023-09-21T22:13:57.598Z,74.70
2023-09-21T22:17:00.559Z,74.87
2023-09-21T22:20:16.018Z,76.36
2023-09-21T22:23:18.517Z,76.58
2023-09-21T22:26:21.158Z,77.71
2023-09-21T22:29:24.087Z,78.52
2023-09-21T22:32:26.662Z,78.95
2023-09-21T22:35:29.212Z,80.13
2023-09-21T22:38:33.411Z,80.25
2023-09-21T22:41:36.602Z,79.77
2023-09-21T22:44:40.322Z,80.13
2023-09-21T22:47:43.947Z,80.02
2023-09-21T22:50:47.203Z,81.15
2023-09-21T22:53:51.023Z,82.23
2023-09-21T22:56:54.682Z,82.30
2023-09-21T22:59:57.377Z,82.81
2023-09-21T23:03:00.309Z,82.85
2023-09-21T23:06:12.549Z,82.54
2023-09-21T23:09:17.430Z,82.10
2023-09-21T23:12:21.572Z,81.53
2023-09-21T23:15:24.762Z,80.73
2023-09-21T23:18:27.823Z,80.61
2023-09-21T23:21:30.727Z,80.17
2023-09-21T23:24:34.469Z,80.41
2023-09-21T23:27:40.669Z,80.29
2023-09-21T23:30:43.999Z,80.54
2023-09-21T23:33:47.083Z,80.92
2023-09-21T23:36:50.782Z,81.29
2023-09-21T23:39:55.026Z,81.87
2023-09-21T23:42:57.935Z,82.51
2023-09-21T23:46:01.749Z,83.17
2023-09-21T23:49:05.277Z,83.62
2023-09-21T23:52:07.974Z,84.49
2023-09-21T23:55:11.727Z,85.11
2023-09-21T23:58:15.866Z,85.26
